sensor_id;sensor_type;location;lat;lon;timestamp;P1;durP1;ratioP1;P2;durP2;ratioP2
44046;SDS011;29713;-33.888;151.150;2023-08-06T00:00:08;8.40;;;2.17;;
44046;SDS011;29713;-33.888;151.150;2023-08-06T00:02:35;9.48;;;2.88;;
44046;SDS011;29713;-33.888;151.150;2023-08-06T00:05:03;8.32;;;2.20;;
44046;SDS011;29713;-33.888;151.150;2023-08-06T00:07:30;8.35;;;2.55;;
44046;SDS011;29713;-33.888;151.150;2023-08-06T00:09:58;8.05;;;2.10;;
44046;SDS011;29713;-33.888;151.150;2023-08-06T00:12:28;9.80;;;2.35;;
44046;SDS011;29713;-33.888;151.150;2023-08-06T00:14:55;5.78;;;1.67;;
44046;SDS011;29713;-33.888;151.150;2023-08-06T00:17:22;6.70;;;1.90;;
44046;SDS011;29713;-33.888;151.150;2023-08-06T00:19:50;7.97;;;1.70;;
44046;SDS011;29713;-33.888;151.150;2023-08-06T00:22:17;8.50;;;1.88;;
44046;SDS011;29713;-33.888;151.150;2023-08-06T00:24:44;8.10;;;1.70;;
44046;SDS011;29713;-33.888;151.150;2023-08-06T00:27:12;9.15;;;1.85;;
44046;SDS011;29713;-33.888;151.150;2023-08-06T00:29:39;6.68;;;1.70;;
44046;SDS011;29713;-33.888;151.150;2023-08-06T00:32:06;8.75;;;2.33;;
44046;SDS011;29713;-33.888;151.150;2023-08-06T00:34:34;5.22;;;1.70;;
44046;SDS011;29713;-33.888;151.150;2023-08-06T00:37:01;7.47;;;1.85;;
44046;SDS011;29713;-33.888;151.150;2023-08-06T00:39:29;10.57;;;2.60;;
44046;SDS011;29713;-33.888;151.150;2023-08-06T00:41:56;9.60;;;2.13;;
44046;SDS011;29713;-33.888;151.150;2023-08-06T00:44:24;7.47;;;1.75;;
44046;SDS011;29713;-33.888;151.150;2023-08-06T00:46:51;7.43;;;1.75;;
44046;SDS011;29713;-33.888;151.150;2023-08-06T00:49:18;6.13;;;1.48;;
44046;SDS011;29713;-33.888;151.150;2023-08-06T00:51:47;6.07;;;1.48;;
44046;SDS011;29713;-33.888;151.150;2023-08-06T00:54:14;6.45;;;1.40;;
44046;SDS011;29713;-33.888;151.150;2023-08-06T00:56:42;9.10;;;1.92;;
44046;SDS011;29713;-33.888;151.150;2023-08-06T00:59:10;8.95;;;1.80;;
44046;SDS011;29713;-33.888;151.150;2023-08-06T01:01:38;6.30;;;1.70;;
44046;SDS011;29713;-33.888;151.150;2023-08-06T01:04:05;9.35;;;1.92;;
44046;SDS011;29713;-33.888;151.150;2023-08-06T01:07:19;5.30;;;1.65;;
44046;SDS011;29713;-33.888;151.150;2023-08-06T01:17:45;4.80;;;1.42;;
44046;SDS011;29713;-33.888;151.150;2023-08-06T01:20:12;8.90;;;1.88;;
44046;SDS011;29713;-33.888;151.150;2023-08-06T01:22:40;3.17;;;1.40;;
44046;SDS011;29713;-33.888;151.150;2023-08-06T01:25:07;4.22;;;1.40;;
44046;SDS011;29713;-33.888;151.150;2023-08-06T01:27:46;4.32;;;1.52;;
44046;SDS011;29713;-33.888;151.150;2023-08-06T01:30:20;4.72;;;1.48;;
44046;SDS011;29713;-33.888;151.150;2023-08-06T01:32:55;6.78;;;1.45;;
44046;SDS011;29713;-33.888;151.150;2023-08-06T01:35:29;7.50;;;1.92;;
44046;SDS011;29713;-33.888;151.150;2023-08-06T01:37:58;7.78;;;1.92;;
44046;SDS011;29713;-33.888;151.150;2023-08-06T01:40:26;7.80;;;1.30;;
44046;SDS011;29713;-33.888;151.150;2023-08-06T01:42:55;7.05;;;1.95;;
44046;SDS011;29713;-33.888;151.150;2023-08-06T01:45:22;8.35;;;1.70;;
44046;SDS011;29713;-33.888;151.150;2023-08-06T01:47:49;4.40;;;1.40;;
44046;SDS011;29713;-33.888;151.150;2023-08-06T01:50:17;6.75;;;1.65;;
44046;SDS011;29713;-33.888;151.150;2023-08-06T01:52:44;5.65;;;1.60;;
44046;SDS011;29713;-33.888;151.150;2023-08-06T01:55:11;6.03;;;1.70;;
44046;SDS011;29713;-33.888;151.150;2023-08-06T01:57:39;5.32;;;1.60;;
44046;SDS011;29713;-33.888;151.150;2023-08-06T02:00:06;6.05;;;1.60;;
44046;SDS011;29713;-33.888;151.150;2023-08-06T02:02:34;4.20;;;1.77;;
44046;SDS011;29713;-33.888;151.150;2023-08-06T02:05:01;3.75;;;1.30;;
44046;SDS011;29713;-33.888;151.150;2023-08-06T02:07:29;5.25;;;1.20;;
44046;SDS011;29713;-33.888;151.150;2023-08-06T02:09:56;5.05;;;1.50;;
44046;SDS011;29713;-33.888;151.150;2023-08-06T02:12:24;2.85;;;0.93;;
44046;SDS011;29713;-33.888;151.150;2023-08-06T02:14:51;4.03;;;1.30;;
44046;SDS011;29713;-33.888;151.150;2023-08-06T02:17:18;6.72;;;1.50;;
44046;SDS011;29713;-33.888;151.150;2023-08-06T02:19:46;6.57;;;1.35;;
44046;SDS011;29713;-33.888;151.150;2023-08-06T02:22:13;5.40;;;1.60;;
44046;SDS011;29713;-33.888;151.150;2023-08-06T02:24:40;8.52;;;1.40;;
44046;SDS011;29713;-33.888;151.150;2023-08-06T02:27:08;6.85;;;1.20;;
44046;SDS011;29713;-33.888;151.150;2023-08-06T02:29:35;5.63;;;1.95;;
44046;SDS011;29713;-33.888;151.150;2023-08-06T02:32:03;4.65;;;1.40;;
44046;SDS011;29713;-33.888;151.150;2023-08-06T02:34:30;3.40;;;1.40;;
44046;SDS011;29713;-33.888;151.150;2023-08-06T02:36:58;4.93;;;1.20;;
44046;SDS011;29713;-33.888;151.150;2023-08-06T02:39:25;6.05;;;1.40;;
44046;SDS011;29713;-33.888;151.150;2023-08-06T02:41:52;7.10;;;1.35;;
44046;SDS011;29713;-33.888;151.150;2023-08-06T02:44:19;5.90;;;1.13;;
44046;SDS011;29713;-33.888;151.150;2023-08-06T02:46:47;5.20;;;1.40;;
44046;SDS011;29713;-33.888;151.150;2023-08-06T02:49:14;4.25;;;1.20;;
44046;SDS011;29713;-33.888;151.150;2023-08-06T02:51:44;7.00;;;1.30;;
44046;SDS011;29713;-33.888;151.150;2023-08-06T02:54:11;6.13;;;1.30;;
44046;SDS011;29713;-33.888;151.150;2023-08-06T02:56:42;4.80;;;1.50;;
44046;SDS011;29713;-33.888;151.150;2023-08-06T02:59:15;3.85;;;1.40;;
44046;SDS011;29713;-33.888;151.150;2023-08-06T03:01:42;8.23;;;1.38;;
44046;SDS011;29713;-33.888;151.150;2023-08-06T03:04:10;6.85;;;1.40;;
44046;SDS011;29713;-33.888;151.150;2023-08-06T03:06:37;7.05;;;1.48;;
44046;SDS011;29713;-33.888;151.150;2023-08-06T03:09:04;2.97;;;1.30;;
44046;SDS011;29713;-33.888;151.150;2023-08-06T03:11:34;3.55;;;1.30;;
44046;SDS011;29713;-33.888;151.150;2023-08-06T03:14:02;6.45;;;1.55;;
44046;SDS011;29713;-33.888;151.150;2023-08-06T03:16:29;3.35;;;1.40;;
44046;SDS011;29713;-33.888;151.150;2023-08-06T03:18:56;8.23;;;1.50;;
44046;SDS011;29713;-33.888;151.150;2023-08-06T03:21:24;4.55;;;1.38;;
44046;SDS011;29713;-33.888;151.150;2023-08-06T03:23:54;5.85;;;1.52;;
44046;SDS011;29713;-33.888;151.150;2023-08-06T03:26:21;5.32;;;1.42;;
44046;SDS011;29713;-33.888;151.150;2023-08-06T03:28:48;4.97;;;1.50;;
44046;SDS011;29713;-33.888;151.150;2023-08-06T03:31:16;7.03;;;1.40;;
44046;SDS011;29713;-33.888;151.150;2023-08-06T03:33:43;4.22;;;1.50;;
44046;SDS011;29713;-33.888;151.150;2023-08-06T03:36:10;6.47;;;1.55;;
44046;SDS011;29713;-33.888;151.150;2023-08-06T03:38:38;6.90;;;1.40;;
44046;SDS011;29713;-33.888;151.150;2023-08-06T03:41:05;5.45;;;1.67;;
44046;SDS011;29713;-33.888;151.150;2023-08-06T03:43:33;4.90;;;1.48;;
44046;SDS011;29713;-33.888;151.150;2023-08-06T03:46:00;4.82;;;1.30;;
44046;SDS011;29713;-33.888;151.150;2023-08-06T03:48:27;4.25;;;1.52;;
44046;SDS011;29713;-33.888;151.150;2023-08-06T03:50:54;7.47;;;1.67;;
44046;SDS011;29713;-33.888;151.150;2023-08-06T03:53:22;13.63;;;4.10;;
44046;SDS011;29713;-33.888;151.150;2023-08-06T03:55:50;8.77;;;1.90;;
44046;SDS011;29713;-33.888;151.150;2023-08-06T03:58:17;8.43;;;1.73;;
44046;SDS011;29713;-33.888;151.150;2023-08-06T04:00:44;5.55;;;1.70;;
44046;SDS011;29713;-33.888;151.150;2023-08-06T04:03:12;6.10;;;1.33;;
44046;SDS011;29713;-33.888;151.150;2023-08-06T04:05:39;6.13;;;1.67;;
44046;SDS011;29713;-33.888;151.150;2023-08-06T04:08:06;7.75;;;1.77;;
44046;SDS011;29713;-33.888;151.150;2023-08-06T04:10:34;4.10;;;1.70;;
44046;SDS011;29713;-33.888;151.150;2023-08-06T04:13:01;5.80;;;1.75;;
44046;SDS011;29713;-33.888;151.150;2023-08-06T04:15:28;4.68;;;1.15;;
44046;SDS011;29713;-33.888;151.150;2023-08-06T04:17:56;6.97;;;1.73;;
44046;SDS011;29713;-33.888;151.150;2023-08-06T04:20:23;3.25;;;1.33;;
44046;SDS011;29713;-33.888;151.150;2023-08-06T04:22:51;4.85;;;1.30;;
44046;SDS011;29713;-33.888;151.150;2023-08-06T04:25:21;5.20;;;1.23;;
44046;SDS011;29713;-33.888;151.150;2023-08-06T04:27:49;4.03;;;1.08;;
44046;SDS011;29713;-33.888;151.150;2023-08-06T04:30:16;5.63;;;1.60;;
44046;SDS011;29713;-33.888;151.150;2023-08-06T04:32:43;2.97;;;1.15;;
44046;SDS011;29713;-33.888;151.150;2023-08-06T04:35:11;5.22;;;1.35;;
44046;SDS011;29713;-33.888;151.150;2023-08-06T04:37:38;3.50;;;0.98;;
44046;SDS011;29713;-33.888;151.150;2023-08-06T04:40:05;4.55;;;1.40;;
44046;SDS011;29713;-33.888;151.150;2023-08-06T04:42:33;5.53;;;1.50;;
44046;SDS011;29713;-33.888;151.150;2023-08-06T04:45:03;5.28;;;1.25;;
44046;SDS011;29713;-33.888;151.150;2023-08-06T04:47:31;3.67;;;1.30;;
44046;SDS011;29713;-33.888;151.150;2023-08-06T04:49:58;8.55;;;1.70;;
44046;SDS011;29713;-33.888;151.150;2023-08-06T04:52:26;4.72;;;1.40;;
44046;SDS011;29713;-33.888;151.150;2023-08-06T04:54:54;4.18;;;1.10;;
44046;SDS011;29713;-33.888;151.150;2023-08-06T04:57:21;2.35;;;1.30;;
44046;SDS011;29713;-33.888;151.150;2023-08-06T04:59:49;4.30;;;1.58;;
44046;SDS011;29713;-33.888;151.150;2023-08-06T05:02:16;4.22;;;1.38;;
44046;SDS011;29713;-33.888;151.150;2023-08-06T05:04:44;2.78;;;1.30;;
44046;SDS011;29713;-33.888;151.150;2023-08-06T05:07:11;3.10;;;0.82;;
44046;SDS011;29713;-33.888;151.150;2023-08-06T05:09:38;6.68;;;1.15;;
44046;SDS011;29713;-33.888;151.150;2023-08-06T05:12:06;4.45;;;1.17;;
44046;SDS011;29713;-33.888;151.150;2023-08-06T05:14:33;2.90;;;1.30;;
44046;SDS011;29713;-33.888;151.150;2023-08-06T05:17:01;2.92;;;1.13;;
44046;SDS011;29713;-33.888;151.150;2023-08-06T05:19:30;4.70;;;1.42;;
44046;SDS011;29713;-33.888;151.150;2023-08-06T05:21:57;3.45;;;1.05;;
44046;SDS011;29713;-33.888;151.150;2023-08-06T05:24:27;5.47;;;1.25;;
44046;SDS011;29713;-33.888;151.150;2023-08-06T05:26:55;4.10;;;1.30;;
44046;SDS011;29713;-33.888;151.150;2023-08-06T05:29:22;4.28;;;1.20;;
44046;SDS011;29713;-33.888;151.150;2023-08-06T05:31:49;3.95;;;1.20;;
44046;SDS011;29713;-33.888;151.150;2023-08-06T05:34:17;6.07;;;1.50;;
44046;SDS011;29713;-33.888;151.150;2023-08-06T05:36:44;3.53;;;1.30;;
44046;SDS011;29713;-33.888;151.150;2023-08-06T05:39:11;2.75;;;0.98;;
44046;SDS011;29713;-33.888;151.150;2023-08-06T05:41:38;3.75;;;1.20;;
44046;SDS011;29713;-33.888;151.150;2023-08-06T05:44:06;5.60;;;1.42;;
44046;SDS011;29713;-33.888;151.150;2023-08-06T05:46:33;3.30;;;1.30;;
44046;SDS011;29713;-33.888;151.150;2023-08-06T05:49:01;5.45;;;1.30;;
44046;SDS011;29713;-33.888;151.150;2023-08-06T05:51:29;4.30;;;1.38;;
44046;SDS011;29713;-33.888;151.150;2023-08-06T05:53:56;5.85;;;1.10;;
44046;SDS011;29713;-33.888;151.150;2023-08-06T05:56:23;4.07;;;1.17;;
44046;SDS011;29713;-33.888;151.150;2023-08-06T05:58:51;5.53;;;1.45;;
44046;SDS011;29713;-33.888;151.150;2023-08-06T06:01:18;3.38;;;1.23;;
44046;SDS011;29713;-33.888;151.150;2023-08-06T06:03:46;3.95;;;1.50;;
44046;SDS011;29713;-33.888;151.150;2023-08-06T06:06:13;4.80;;;1.17;;
44046;SDS011;29713;-33.888;151.150;2023-08-06T06:08:42;4.05;;;1.08;;
44046;SDS011;29713;-33.888;151.150;2023-08-06T06:11:09;4.68;;;1.20;;
44046;SDS011;29713;-33.888;151.150;2023-08-06T06:13:36;4.95;;;1.15;;
44046;SDS011;29713;-33.888;151.150;2023-08-06T06:16:04;4.30;;;1.33;;
44046;SDS011;29713;-33.888;151.150;2023-08-06T06:18:31;2.00;;;1.02;;
44046;SDS011;29713;-33.888;151.150;2023-08-06T06:20:58;5.72;;;1.30;;
44046;SDS011;29713;-33.888;151.150;2023-08-06T06:23:26;3.72;;;0.90;;
44046;SDS011;29713;-33.888;151.150;2023-08-06T06:25:53;6.00;;;1.20;;
44046;SDS011;29713;-33.888;151.150;2023-08-06T06:28:21;4.68;;;1.10;;
44046;SDS011;29713;-33.888;151.150;2023-08-06T06:30:48;3.67;;;1.02;;
44046;SDS011;29713;-33.888;151.150;2023-08-06T06:33:16;4.40;;;1.20;;
44046;SDS011;29713;-33.888;151.150;2023-08-06T06:35:43;8.60;;;1.40;;
44046;SDS011;29713;-33.888;151.150;2023-08-06T06:38:10;7.35;;;1.33;;
44046;SDS011;29713;-33.888;151.150;2023-08-06T06:40:40;5.68;;;1.40;;
44046;SDS011;29713;-33.888;151.150;2023-08-06T06:43:08;6.72;;;1.40;;
44046;SDS011;29713;-33.888;151.150;2023-08-06T06:45:35;2.35;;;1.13;;
44046;SDS011;29713;-33.888;151.150;2023-08-06T06:48:02;4.85;;;1.17;;
44046;SDS011;29713;-33.888;151.150;2023-08-06T06:50:30;6.28;;;1.25;;
44046;SDS011;29713;-33.888;151.150;2023-08-06T06:52:57;2.42;;;1.10;;
44046;SDS011;29713;-33.888;151.150;2023-08-06T06:55:25;3.65;;;1.25;;
44046;SDS011;29713;-33.888;151.150;2023-08-06T06:57:55;4.15;;;1.20;;
44046;SDS011;29713;-33.888;151.150;2023-08-06T07:00:25;2.40;;;1.42;;
44046;SDS011;29713;-33.888;151.150;2023-08-06T07:02:52;3.40;;;1.25;;
44046;SDS011;29713;-33.888;151.150;2023-08-06T07:05:20;10.00;;;1.58;;
44046;SDS011;29713;-33.888;151.150;2023-08-06T07:07:47;4.10;;;1.30;;
44046;SDS011;29713;-33.888;151.150;2023-08-06T07:10:14;2.67;;;0.90;;
44046;SDS011;29713;-33.888;151.150;2023-08-06T07:12:42;3.75;;;1.00;;
44046;SDS011;29713;-33.888;151.150;2023-08-06T07:15:09;3.90;;;1.13;;
44046;SDS011;29713;-33.888;151.150;2023-08-06T07:17:37;4.03;;;1.45;;
44046;SDS011;29713;-33.888;151.150;2023-08-06T07:20:05;3.47;;;1.15;;
44046;SDS011;29713;-33.888;151.150;2023-08-06T07:22:33;3.65;;;1.40;;
44046;SDS011;29713;-33.888;151.150;2023-08-06T07:25:00;2.15;;;1.10;;
44046;SDS011;29713;-33.888;151.150;2023-08-06T07:27:28;4.50;;;1.50;;
44046;SDS011;29713;-33.888;151.150;2023-08-06T07:29:55;2.63;;;1.33;;
44046;SDS011;29713;-33.888;151.150;2023-08-06T07:32:24;3.28;;;1.55;;
44046;SDS011;29713;-33.888;151.150;2023-08-06T07:34:51;4.97;;;1.63;;
44046;SDS011;29713;-33.888;151.150;2023-08-06T07:37:25;3.28;;;1.60;;
44046;SDS011;29713;-33.888;151.150;2023-08-06T07:39:55;5.17;;;1.73;;
44046;SDS011;29713;-33.888;151.150;2023-08-06T07:42:23;4.23;;;1.47;;
44046;SDS011;29713;-33.888;151.150;2023-08-06T07:44:53;4.13;;;1.70;;
44046;SDS011;29713;-33.888;151.150;2023-08-06T07:47:22;3.87;;;1.33;;
44046;SDS011;29713;-33.888;151.150;2023-08-06T07:49:50;4.38;;;1.88;;
44046;SDS011;29713;-33.888;151.150;2023-08-06T07:52:18;3.03;;;1.60;;
44046;SDS011;29713;-33.888;151.150;2023-08-06T07:54:45;5.15;;;1.50;;
44046;SDS011;29713;-33.888;151.150;2023-08-06T07:57:12;2.97;;;1.67;;
44046;SDS011;29713;-33.888;151.150;2023-08-06T07:59:41;4.05;;;1.50;;
44046;SDS011;29713;-33.888;151.150;2023-08-06T08:02:08;4.80;;;1.80;;
44046;SDS011;29713;-33.888;151.150;2023-08-06T08:04:35;5.43;;;2.40;;
44046;SDS011;29713;-33.888;151.150;2023-08-06T08:07:03;6.60;;;2.73;;
44046;SDS011;29713;-33.888;151.150;2023-08-06T08:09:30;6.67;;;3.00;;
44046;SDS011;29713;-33.888;151.150;2023-08-06T08:11:57;9.13;;;4.77;;
44046;SDS011;29713;-33.888;151.150;2023-08-06T08:14:26;7.03;;;3.93;;
44046;SDS011;29713;-33.888;151.150;2023-08-06T08:16:54;8.43;;;3.20;;
44046;SDS011;29713;-33.888;151.150;2023-08-06T08:19:22;4.43;;;2.60;;
44046;SDS011;29713;-33.888;151.150;2023-08-06T08:21:49;5.07;;;1.97;;
44046;SDS011;29713;-33.888;151.150;2023-08-06T08:24:16;4.07;;;1.87;;
44046;SDS011;29713;-33.888;151.150;2023-08-06T08:26:45;4.67;;;1.87;;
44046;SDS011;29713;-33.888;151.150;2023-08-06T08:29:12;3.27;;;1.30;;
44046;SDS011;29713;-33.888;151.150;2023-08-06T08:31:43;3.50;;;1.67;;
44046;SDS011;29713;-33.888;151.150;2023-08-06T08:34:10;3.70;;;1.57;;
44046;SDS011;29713;-33.888;151.150;2023-08-06T08:36:37;7.00;;;2.00;;
44046;SDS011;29713;-33.888;151.150;2023-08-06T08:39:05;3.70;;;1.87;;
44046;SDS011;29713;-33.888;151.150;2023-08-06T08:41:33;6.97;;;2.20;;
44046;SDS011;29713;-33.888;151.150;2023-08-06T08:44:01;5.23;;;3.37;;
44046;SDS011;29713;-33.888;151.150;2023-08-06T08:46:31;5.73;;;2.90;;
44046;SDS011;29713;-33.888;151.150;2023-08-06T08:49:00;3.97;;;2.10;;
44046;SDS011;29713;-33.888;151.150;2023-08-06T08:51:29;4.87;;;2.57;;
44046;SDS011;29713;-33.888;151.150;2023-08-06T08:53:56;4.90;;;2.20;;
44046;SDS011;29713;-33.888;151.150;2023-08-06T08:56:24;4.53;;;2.40;;
44046;SDS011;29713;-33.888;151.150;2023-08-06T08:58:54;3.60;;;2.17;;
44046;SDS011;29713;-33.888;151.150;2023-08-06T09:01:22;4.40;;;1.90;;
44046;SDS011;29713;-33.888;151.150;2023-08-06T09:03:50;5.30;;;2.53;;
44046;SDS011;29713;-33.888;151.150;2023-08-06T09:06:19;5.10;;;2.23;;
44046;SDS011;29713;-33.888;151.150;2023-08-06T09:09:09;4.90;;;2.10;;
44046;SDS011;29713;-33.888;151.150;2023-08-06T09:11:44;3.80;;;2.10;;
44046;SDS011;29713;-33.888;151.150;2023-08-06T09:14:15;5.83;;;2.93;;
44046;SDS011;29713;-33.888;151.150;2023-08-06T09:16:43;5.23;;;2.50;;
44046;SDS011;29713;-33.888;151.150;2023-08-06T09:19:11;5.60;;;2.67;;
44046;SDS011;29713;-33.888;151.150;2023-08-06T09:21:43;4.47;;;2.47;;
44046;SDS011;29713;-33.888;151.150;2023-08-06T09:24:14;4.37;;;2.20;;
44046;SDS011;29713;-33.888;151.150;2023-08-06T09:26:43;3.83;;;2.43;;
44046;SDS011;29713;-33.888;151.150;2023-08-06T09:29:11;5.50;;;2.47;;
44046;SDS011;29713;-33.888;151.150;2023-08-06T09:31:41;4.93;;;2.13;;
44046;SDS011;29713;-33.888;151.150;2023-08-06T09:36:54;4.90;;;2.73;;
44046;SDS011;29713;-33.888;151.150;2023-08-06T09:39:28;4.73;;;2.10;;
44046;SDS011;29713;-33.888;151.150;2023-08-06T09:41:57;5.10;;;2.40;;
44046;SDS011;29713;-33.888;151.150;2023-08-06T09:44:27;5.30;;;3.10;;
44046;SDS011;29713;-33.888;151.150;2023-08-06T09:46:59;6.83;;;2.50;;
44046;SDS011;29713;-33.888;151.150;2023-08-06T09:52:00;4.93;;;2.83;;
44046;SDS011;29713;-33.888;151.150;2023-08-06T09:54:28;4.90;;;3.47;;
44046;SDS011;29713;-33.888;151.150;2023-08-06T09:56:56;4.67;;;3.20;;
44046;SDS011;29713;-33.888;151.150;2023-08-06T09:59:23;3.33;;;2.43;;
44046;SDS011;29713;-33.888;151.150;2023-08-06T10:01:52;5.50;;;2.77;;
44046;SDS011;29713;-33.888;151.150;2023-08-06T10:04:26;4.30;;;2.27;;
44046;SDS011;29713;-33.888;151.150;2023-08-06T10:06:55;3.33;;;2.43;;
44046;SDS011;29713;-33.888;151.150;2023-08-06T10:09:24;2.83;;;2.33;;
44046;SDS011;29713;-33.888;151.150;2023-08-06T10:11:51;2.43;;;1.97;;
44046;SDS011;29713;-33.888;151.150;2023-08-06T10:14:30;5.37;;;2.77;;
44046;SDS011;29713;-33.888;151.150;2023-08-06T10:17:05;7.17;;;2.90;;
44046;SDS011;29713;-33.888;151.150;2023-08-06T10:19:32;4.30;;;2.43;;
44046;SDS011;29713;-33.888;151.150;2023-08-06T10:22:13;4.93;;;2.93;;
44046;SDS011;29713;-33.888;151.150;2023-08-06T10:24:55;3.77;;;2.30;;
44046;SDS011;29713;-33.888;151.150;2023-08-06T10:33:01;4.93;;;2.87;;
44046;SDS011;29713;-33.888;151.150;2023-08-06T10:38:17;5.90;;;3.03;;
44046;SDS011;29713;-33.888;151.150;2023-08-06T10:43:26;3.40;;;2.37;;
44046;SDS011;29713;-33.888;151.150;2023-08-06T10:45:55;4.80;;;2.83;;
44046;SDS011;29713;-33.888;151.150;2023-08-06T10:48:37;7.00;;;5.40;;
44046;SDS011;29713;-33.888;151.150;2023-08-06T10:51:08;9.00;;;5.60;;
44046;SDS011;29713;-33.888;151.150;2023-08-06T10:53:47;8.43;;;5.43;;
44046;SDS011;29713;-33.888;151.150;2023-08-06T10:56:16;7.93;;;6.10;;
44046;SDS011;29713;-33.888;151.150;2023-08-06T10:58:54;6.57;;;4.80;;
44046;SDS011;29713;-33.888;151.150;2023-08-06T11:01:28;6.00;;;4.07;;
44046;SDS011;29713;-33.888;151.150;2023-08-06T11:03:55;6.23;;;4.00;;
44046;SDS011;29713;-33.888;151.150;2023-08-06T11:06:27;6.00;;;3.30;;
44046;SDS011;29713;-33.888;151.150;2023-08-06T11:08:54;6.97;;;3.53;;
44046;SDS011;29713;-33.888;151.150;2023-08-06T11:11:22;5.63;;;3.50;;
44046;SDS011;29713;-33.888;151.150;2023-08-06T11:13:50;4.80;;;2.97;;
44046;SDS011;29713;-33.888;151.150;2023-08-06T11:16:23;8.33;;;3.27;;
44046;SDS011;29713;-33.888;151.150;2023-08-06T11:18:51;6.80;;;3.33;;
44046;SDS011;29713;-33.888;151.150;2023-08-06T11:21:20;5.17;;;3.40;;
44046;SDS011;29713;-33.888;151.150;2023-08-06T11:23:50;5.47;;;3.47;;
44046;SDS011;29713;-33.888;151.150;2023-08-06T11:26:21;4.50;;;2.83;;
44046;SDS011;29713;-33.888;151.150;2023-08-06T11:28:49;4.63;;;2.87;;
44046;SDS011;29713;-33.888;151.150;2023-08-06T11:31:20;4.03;;;2.80;;
44046;SDS011;29713;-33.888;151.150;2023-08-06T11:33:51;4.63;;;3.00;;
44046;SDS011;29713;-33.888;151.150;2023-08-06T11:36:32;4.83;;;2.90;;
44046;SDS011;29713;-33.888;151.150;2023-08-06T11:39:02;3.67;;;2.87;;
44046;SDS011;29713;-33.888;151.150;2023-08-06T11:41:32;4.33;;;3.30;;
44046;SDS011;29713;-33.888;151.150;2023-08-06T11:44:03;6.83;;;3.20;;
44046;SDS011;29713;-33.888;151.150;2023-08-06T11:46:49;5.33;;;2.97;;
44046;SDS011;29713;-33.888;151.150;2023-08-06T11:49:40;7.43;;;3.40;;
44046;SDS011;29713;-33.888;151.150;2023-08-06T11:52:20;6.17;;;2.93;;
44046;SDS011;29713;-33.888;151.150;2023-08-06T11:57:34;6.33;;;2.87;;
44046;SDS011;29713;-33.888;151.150;2023-08-06T12:00:03;4.90;;;2.90;;
44046;SDS011;29713;-33.888;151.150;2023-08-06T12:02:32;7.30;;;3.10;;
44046;SDS011;29713;-33.888;151.150;2023-08-06T12:07:38;4.73;;;3.20;;
44046;SDS011;29713;-33.888;151.150;2023-08-06T12:10:11;4.13;;;2.77;;
44046;SDS011;29713;-33.888;151.150;2023-08-06T12:12:39;5.77;;;3.73;;
44046;SDS011;29713;-33.888;151.150;2023-08-06T12:15:07;4.33;;;3.27;;
44046;SDS011;29713;-33.888;151.150;2023-08-06T12:17:35;7.57;;;3.80;;
44046;SDS011;29713;-33.888;151.150;2023-08-06T12:20:04;7.43;;;4.10;;
44046;SDS011;29713;-33.888;151.150;2023-08-06T12:22:32;6.57;;;3.80;;
44046;SDS011;29713;-33.888;151.150;2023-08-06T12:25:01;7.03;;;4.23;;
44046;SDS011;29713;-33.888;151.150;2023-08-06T12:27:32;7.40;;;3.83;;
44046;SDS011;29713;-33.888;151.150;2023-08-06T12:30:03;6.50;;;3.63;;
44046;SDS011;29713;-33.888;151.150;2023-08-06T12:32:31;6.97;;;3.70;;
44046;SDS011;29713;-33.888;151.150;2023-08-06T12:34:59;7.00;;;3.70;;
44046;SDS011;29713;-33.888;151.150;2023-08-06T12:37:28;9.43;;;4.03;;
44046;SDS011;29713;-33.888;151.150;2023-08-06T12:39:55;6.00;;;3.83;;
44046;SDS011;29713;-33.888;151.150;2023-08-06T12:42:22;6.30;;;4.13;;
44046;SDS011;29713;-33.888;151.150;2023-08-06T12:44:50;6.20;;;3.97;;
44046;SDS011;29713;-33.888;151.150;2023-08-06T12:47:18;7.13;;;3.73;;
44046;SDS011;29713;-33.888;151.150;2023-08-06T12:49:45;8.13;;;4.13;;
44046;SDS011;29713;-33.888;151.150;2023-08-06T12:52:13;7.27;;;4.23;;
44046;SDS011;29713;-33.888;151.150;2023-08-06T12:54:41;6.10;;;3.63;;
44046;SDS011;29713;-33.888;151.150;2023-08-06T12:57:08;5.57;;;3.83;;
44046;SDS011;29713;-33.888;151.150;2023-08-06T12:59:35;6.37;;;4.00;;
44046;SDS011;29713;-33.888;151.150;2023-08-06T13:02:03;5.90;;;3.70;;
44046;SDS011;29713;-33.888;151.150;2023-08-06T13:04:30;8.50;;;4.53;;
44046;SDS011;29713;-33.888;151.150;2023-08-06T13:06:59;8.47;;;4.37;;
44046;SDS011;29713;-33.888;151.150;2023-08-06T13:09:26;5.47;;;3.60;;
44046;SDS011;29713;-33.888;151.150;2023-08-06T13:11:55;8.00;;;4.70;;
44046;SDS011;29713;-33.888;151.150;2023-08-06T13:14:23;6.83;;;4.23;;
44046;SDS011;29713;-33.888;151.150;2023-08-06T13:16:50;6.87;;;4.43;;
44046;SDS011;29713;-33.888;151.150;2023-08-06T13:19:18;7.93;;;4.30;;
44046;SDS011;29713;-33.888;151.150;2023-08-06T13:24:18;5.17;;;3.47;;
44046;SDS011;29713;-33.888;151.150;2023-08-06T13:26:46;6.67;;;4.10;;
44046;SDS011;29713;-33.888;151.150;2023-08-06T13:29:13;7.60;;;4.13;;
44046;SDS011;29713;-33.888;151.150;2023-08-06T13:31:41;7.30;;;4.33;;
44046;SDS011;29713;-33.888;151.150;2023-08-06T13:34:08;8.53;;;4.70;;
44046;SDS011;29713;-33.888;151.150;2023-08-06T13:36:35;7.70;;;4.20;;
44046;SDS011;29713;-33.888;151.150;2023-08-06T13:39:02;8.83;;;4.33;;
44046;SDS011;29713;-33.888;151.150;2023-08-06T13:41:31;5.30;;;3.63;;
44046;SDS011;29713;-33.888;151.150;2023-08-06T13:43:58;7.03;;;3.87;;
44046;SDS011;29713;-33.888;151.150;2023-08-06T13:46:26;7.70;;;4.53;;
44046;SDS011;29713;-33.888;151.150;2023-08-06T13:48:53;5.43;;;3.90;;
44046;SDS011;29713;-33.888;151.150;2023-08-06T13:51:20;5.97;;;3.73;;
44046;SDS011;29713;-33.888;151.150;2023-08-06T13:53:47;7.43;;;4.67;;
44046;SDS011;29713;-33.888;151.150;2023-08-06T13:56:15;7.60;;;4.13;;
44046;SDS011;29713;-33.888;151.150;2023-08-06T13:58:43;8.87;;;5.07;;
44046;SDS011;29713;-33.888;151.150;2023-08-06T14:01:13;8.77;;;4.80;;
44046;SDS011;29713;-33.888;151.150;2023-08-06T14:03:46;8.93;;;5.17;;
44046;SDS011;29713;-33.888;151.150;2023-08-06T14:06:14;10.53;;;5.43;;
44046;SDS011;29713;-33.888;151.150;2023-08-06T14:08:41;9.67;;;4.73;;
44046;SDS011;29713;-33.888;151.150;2023-08-06T14:11:08;8.90;;;4.90;;
44046;SDS011;29713;-33.888;151.150;2023-08-06T14:13:39;7.57;;;4.80;;
44046;SDS011;29713;-33.888;151.150;2023-08-06T14:16:09;11.53;;;4.67;;
44046;SDS011;29713;-33.888;151.150;2023-08-06T14:18:36;8.77;;;5.07;;
44046;SDS011;29713;-33.888;151.150;2023-08-06T14:21:04;7.90;;;4.73;;
44046;SDS011;29713;-33.888;151.150;2023-08-06T14:23:31;8.80;;;4.50;;
44046;SDS011;29713;-33.888;151.150;2023-08-06T14:25:58;7.10;;;4.50;;
44046;SDS011;29713;-33.888;151.150;2023-08-06T14:28:26;7.80;;;4.53;;
44046;SDS011;29713;-33.888;151.150;2023-08-06T14:30:53;8.47;;;4.70;;
44046;SDS011;29713;-33.888;151.150;2023-08-06T14:33:21;6.83;;;4.47;;
44046;SDS011;29713;-33.888;151.150;2023-08-06T14:35:48;6.80;;;4.40;;
44046;SDS011;29713;-33.888;151.150;2023-08-06T14:38:16;5.53;;;3.70;;
44046;SDS011;29713;-33.888;151.150;2023-08-06T14:40:43;9.30;;;4.10;;
44046;SDS011;29713;-33.888;151.150;2023-08-06T14:43:11;8.10;;;4.43;;
44046;SDS011;29713;-33.888;151.150;2023-08-06T14:45:39;6.40;;;3.67;;
44046;SDS011;29713;-33.888;151.150;2023-08-06T14:48:06;8.70;;;3.87;;